Hovedside
METAR-TAF:

METAR-TAF

Lufthavner :

Frédéric Chopin lufthavn Warszawa-Okęcie

Warszawa, Polen

breddegrad: 52-10N, lengdegrad: 020-58E, høyde over havet: 106 m

Gjeldene værobservasjon

Denne rapporten ble laget for 38 minutter siden, klokken 17:00 UTC
Vind 8 kt fra Nord-nordvest
Temperatur 21°C
Luftfuktighet 64%
Trykk 1019 hPa
Sikt 10 km eller mer
Få skyer i en høyde av 3800 ft

METAR: EPWA 241700Z 34008KT 9999 FEW038 21/14 Q1019 NOSIG

Tid: 19:38 (17:38 UTC)

Varsel

Denne rapporten ble laget for 3 timer og 8 minutter siden, klokken 14:30 UTC
Varsel gyldig fra 24. klokken 15 UTC til 25. klokken 15 UTC
Vind 10 kt fra Nord
Sikt 10 km eller mer
Spredte skyer i en høyde av 3500 ft
Blir
fra 24. klokken 17 UTC til 24. klokken 20 UTC
Vind 2 kt fra skiftende retning

TAF: EPWA 241430Z 2415/2515 35010KT 9999 SCT035 BECMG 2417/2420 VRB02KT

Værobservasjoner og værvarsel for over 4000 flyplasser (METAR- og TAF-rapporter).

Tilgjengelige stasjoner er representert av de røde og gule prikkene på kartet.

Hold musepekeren over prikken for å se navnet på stasjonen.

Klikk så for å se værobservasjoner og -varsler.

For å forandre kartet kan du klikke på den grønne knappen med svart kryss for å zoome inn, på den grønne knappen med strek for å zoome ut, eller på de grønne pilene for å se tilstøtende kart.


METAR-TAF: